createdAt,value
2023-01-22T00:08:44.562Z,970.31
2023-01-22T00:23:46.535Z,970.2
2023-01-22T00:38:48.469Z,970.06
2023-01-22T00:53:50.492Z,969.94
2023-01-22T01:08:52.362Z,969.69
2023-01-22T01:23:54.473Z,969.59
2023-01-22T01:38:56.480Z,969.42
2023-01-22T01:53:58.369Z,969.28
2023-01-22T02:09:00.552Z,969.14
2023-01-22T02:24:02.536Z,969.21
2023-01-22T02:39:04.559Z,969.29
2023-01-22T02:54:06.468Z,969.14
2023-01-22T03:09:08.446Z,969.02
2023-01-22T03:24:10.414Z,969.07
2023-01-22T03:39:12.407Z,968.9
2023-01-22T03:54:14.323Z,968.86
2023-01-22T04:09:16.222Z,968.68
2023-01-22T04:24:18.216Z,968.53
2023-01-22T04:39:20.154Z,968.71
2023-01-22T04:54:22.131Z,968.78
2023-01-22T05:09:24.021Z,968.59
2023-01-22T05:24:25.988Z,968.57
2023-01-22T05:39:28.004Z,968.56
2023-01-22T05:54:29.928Z,968.64
2023-01-22T06:09:31.837Z,968.63
2023-01-22T06:24:33.744Z,968.66
2023-01-22T06:39:35.744Z,968.82
2023-01-22T06:54:37.619Z,968.94
2023-01-22T07:09:39.497Z,968.8
2023-01-22T07:24:41.425Z,968.81
2023-01-22T07:39:43.423Z,969.03
2023-01-22T07:54:45.338Z,968.98
2023-01-22T08:09:47.246Z,969.08
2023-01-22T08:24:49.144Z,968.89
2023-01-22T08:39:51.101Z,968.98
2023-01-22T08:54:53.029Z,968.85
2023-01-22T09:09:54.973Z,968.94
2023-01-22T09:24:56.883Z,969.2
2023-01-22T09:39:58.859Z,969.25
2023-01-22T09:55:00.826Z,969.43
2023-01-22T10:10:02.701Z,969.75
2023-01-22T10:25:04.740Z,969.77
2023-01-22T10:40:06.740Z,969.91
2023-01-22T10:55:08.644Z,969.97
2023-01-22T11:10:10.657Z,969.99
2023-01-22T11:25:12.604Z,970.1
2023-01-22T11:40:14.728Z,970.34
2023-01-22T11:55:16.710Z,970.4
2023-01-22T12:10:19.018Z,970.55
2023-01-22T12:25:21.178Z,970.68
2023-01-22T12:40:23.108Z,970.86
2023-01-22T12:55:25.127Z,970.93
2023-01-22T13:10:27.044Z,971.01
2023-01-22T13:25:28.891Z,971.13
2023-01-22T13:40:39.759Z,971.38
2023-01-22T13:55:48.555Z,971.57
2023-01-22T14:10:50.511Z,971.61
2023-01-22T14:25:52.482Z,971.7
2023-01-22T14:40:54.643Z,971.63
2023-01-22T14:55:56.588Z,971.52
2023-01-22T15:10:58.500Z,971.63
2023-01-22T15:26:00.395Z,971.98
2023-01-22T15:41:02.320Z,971.75
2023-01-22T15:56:04.292Z,972
2023-01-22T16:11:06.282Z,972.01
2023-01-22T16:26:08.182Z,972.15
2023-01-22T16:41:10.120Z,972.25
2023-01-22T16:56:12.036Z,972.51
2023-01-22T17:11:13.967Z,972.77
2023-01-22T17:26:15.990Z,972.81
2023-01-22T17:41:17.919Z,972.99
2023-01-22T17:56:19.877Z,973.23
2023-01-22T18:11:21.802Z,973.26
2023-01-22T18:26:23.770Z,973.35
2023-01-22T18:41:25.827Z,973.21
2023-01-22T18:56:27.774Z,973.18
2023-01-22T19:11:29.725Z,973.18
2023-01-22T19:26:31.712Z,973.19
2023-01-22T19:41:33.608Z,973.06
2023-01-22T19:56:35.855Z,973.07
2023-01-22T20:11:37.798Z,972.93
2023-01-22T20:26:39.731Z,973.11
2023-01-22T20:41:41.623Z,973.06
2023-01-22T20:56:43.623Z,973.16
2023-01-22T21:11:45.538Z,973.22
2023-01-22T21:26:47.445Z,973.31
2023-01-22T21:41:49.381Z,973.41
2023-01-22T21:56:51.281Z,973.37
2023-01-22T22:11:53.247Z,973.53
2023-01-22T22:26:55.165Z,973.72
2023-01-22T22:41:57.133Z,973.92
2023-01-22T22:56:59.094Z,973.99
2023-01-22T23:12:01.204Z,974.06
2023-01-22T23:27:03.090Z,974.31
2023-01-22T23:42:04.986Z,974.58
2023-01-22T23:57:06.866Z,974.74
